Time;durP1;ratioP1;P1;durP2;ratioP2;P2;SDS_P1;SDS_P2;PMS_P1;PMS_P2;Temp;Humidity;BMP_temperature;BMP_pressure;BME280_temperature;BME280_humidity;BME280_pressure;Samples;Min_cycle;Max_cycle;Signal;HPM_P1;HPM_P2
2023/06/04 00:02:23;;;;;;;7.00;3.30;;;;;;;12.44;56.37;101287.80;105001;1254;64171;-55
2023/06/04 00:04:51;;;;;;;6.60;3.20;;;;;;;12.40;56.78;101291.78;105065;1254;61470;-55
2023/06/04 00:07:18;;;;;;;7.10;3.00;;;;;;;12.35;57.12;101290.02;105330;1257;63742;-56
2023/06/04 00:09:46;;;;;;;6.10;2.80;;;;;;;12.35;57.15;101289.91;105095;1254;59793;-56
2023/06/04 00:12:14;;;;;;;5.40;2.70;;;;;;;12.35;56.92;101287.61;105124;1256;59667;-57
2023/06/04 00:14:42;;;;;;;5.80;2.70;;;;;;;12.33;56.92;101285.96;104960;1254;63980;-53
2023/06/04 00:17:10;;;;;;;11.60;3.70;;;;;;;12.28;56.66;101285.23;106128;1254;62293;-55
2023/06/04 00:19:40;;;;;;;6.80;3.40;;;;;;;12.23;56.54;101287.55;105039;1255;63807;-55
2023/06/04 00:22:08;;;;;;;9.10;4.00;;;;;;;12.15;56.58;101293.08;105003;1256;59766;-55
2023/06/04 00:24:37;;;;;;;6.10;3.60;;;;;;;12.08;56.89;101290.59;105272;1254;59881;-59
2023/06/04 00:27:09;;;;;;;7.80;3.30;;;;;;;12.00;57.31;101289.73;105488;1259;64072;-55
2023/06/04 00:29:36;;;;;;;9.70;4.10;;;;;;;11.94;57.46;101287.75;106061;1254;61504;-55
2023/06/04 00:32:04;;;;;;;8.60;3.80;;;;;;;11.87;57.16;101291.34;104947;1257;63747;-55
2023/06/04 00:34:32;;;;;;;7.80;3.80;;;;;;;11.80;57.06;101289.20;105386;1254;60621;-55
2023/06/04 00:37:01;;;;;;;6.10;3.20;;;;;;;11.73;57.11;101288.27;105071;1259;60425;-56
2023/06/04 00:39:29;;;;;;;6.80;3.30;;;;;;;11.68;57.29;101288.10;105440;1256;64900;-55
2023/06/04 00:41:57;;;;;;;6.40;3.00;;;;;;;11.65;57.32;101287.09;105106;1254;61423;-56
2023/06/04 00:44:25;;;;;;;8.50;3.40;;;;;;;11.61;57.14;101290.35;104967;1258;64419;-56
2023/06/04 00:46:56;;;;;;;6.30;3.40;;;;;;;11.56;57.30;101293.66;105627;1260;60438;-56
2023/06/04 00:49:23;;;;;;;5.60;2.90;;;;;;;11.57;57.11;101295.88;104885;1260;60387;-55
2023/06/04 00:51:52;;;;;;;6.90;3.30;;;;;;;11.60;56.95;101289.70;104931;1254;63730;-56
2023/06/04 00:54:20;;;;;;;5.20;2.70;;;;;;;11.63;57.00;101294.98;105079;1254;61357;-56
2023/06/04 00:56:47;;;;;;;6.70;3.20;;;;;;;11.62;57.02;101300.11;105814;1259;62445;-58
2023/06/04 00:59:16;;;;;;;6.90;3.20;;;;;;;11.60;56.88;101298.17;104954;1254;60457;-56
2023/06/04 01:02:14;;;;;;;7.10;2.90;;;;;;;11.56;56.90;101299.34;105049;1255;60442;-59
2023/06/04 01:04:50;;;;;;;8.20;2.90;;;;;;;11.49;57.04;101307.84;105041;1260;73797;-59
2023/06/04 01:07:17;;;;;;;4.30;1.30;;;;;;;11.40;57.38;101308.83;105066;1259;60503;-56
2023/06/04 01:09:45;;;;;;;6.70;2.70;;;;;;;11.31;57.67;101309.95;104856;1254;63745;-54
2023/06/04 01:12:13;;;;;;;6.10;3.00;;;;;;;11.25;57.94;101309.88;105050;1256;60408;-56
2023/06/04 01:14:41;;;;;;;5.40;2.60;;;;;;;11.22;58.24;101310.08;105021;1254;60620;-56
2023/06/04 01:17:41;;;;;;;5.40;2.40;;;;;;;11.25;58.09;101308.27;105213;1256;65086;-57
2023/06/04 01:20:27;;;;;;;5.80;2.50;;;;;;;11.32;57.76;101304.08;105095;1259;60379;-57
2023/06/04 01:22:56;;;;;;;2.80;1.10;;;;;;;11.35;57.17;101302.50;104982;1254;62572;-57
2023/06/04 01:25:30;;;;;;;6.10;2.50;;;;;;;11.34;56.79;101302.73;105044;1254;60519;-57
2023/06/04 01:27:57;;;;;;;7.10;3.10;;;;;;;11.32;56.75;101300.97;105063;1256;60498;-56
2023/06/04 01:30:26;;;;;;;6.40;2.60;;;;;;;11.29;56.77;101301.83;105050;1254;63645;-57
2023/06/04 01:32:54;;;;;;;5.80;2.50;;;;;;;11.27;56.84;101304.27;105025;1259;60450;-56
2023/06/04 01:35:22;;;;;;;8.70;2.70;;;;;;;11.25;56.95;101307.41;105701;1256;64349;-56
2023/06/04 01:37:52;;;;;;;8.70;2.40;;;;;;;11.22;57.02;101304.44;106557;1256;60437;-57
2023/06/04 01:40:20;;;;;;;5.70;2.20;;;;;;;11.18;57.35;101304.52;104818;1258;60559;-56
2023/06/04 01:42:48;;;;;;;6.50;2.90;;;;;;;11.15;57.56;101308.60;105868;1257;64864;-55
2023/06/04 01:45:15;;;;;;;6.00;2.60;;;;;;;11.11;57.75;101314.64;104928;1254;61368;-55
2023/06/04 01:47:43;;;;;;;4.70;2.20;;;;;;;11.15;57.88;101313.35;105015;1259;62563;-54
2023/06/04 01:50:11;;;;;;;6.20;2.50;;;;;;;11.20;57.97;101312.16;105018;1259;60428;-54
2023/06/04 01:52:39;;;;;;;6.80;2.50;;;;;;;11.24;58.16;101314.36;104948;1254;61001;-56
2023/06/04 01:55:08;;;;;;;8.00;2.60;;;;;;;11.24;58.41;101315.52;105352;1259;65039;-58
2023/06/04 01:57:36;;;;;;;5.90;2.50;;;;;;;11.24;58.62;101317.45;105295;1259;60511;-56
2023/06/04 02:00:09;;;;;;;6.50;2.20;;;;;;;11.24;58.53;101316.29;106145;1256;62514;-56
2023/06/04 02:02:41;;;;;;;3.70;1.00;;;;;;;11.25;58.52;101317.98;105201;1254;60455;-57
2023/06/04 02:05:09;;;;;;;7.60;2.70;;;;;;;11.28;58.32;101320.23;105224;1254;60476;-56
2023/06/04 02:07:38;;;;;;;6.20;3.00;;;;;;;11.25;58.28;101322.72;106106;1254;63684;-56
2023/06/04 02:10:10;;;;;;;7.40;3.00;;;;;;;11.19;58.37;101326.98;106299;1254;62657;-56
2023/06/04 02:12:38;;;;;;;5.20;2.70;;;;;;;11.07;58.46;101334.05;105014;1259;62461;-57
2023/06/04 02:15:07;;;;;;;5.00;2.20;;;;;;;10.97;58.72;101335.64;104897;1256;60573;-56
2023/06/04 02:17:39;;;;;;;5.60;2.40;;;;;;;10.97;58.93;101338.05;109111;1254;58636;-58
2023/06/04 02:20:09;;;;;;;6.40;2.30;;;;;;;10.98;59.25;101338.19;109180;1254;65035;-55
2023/06/04 02:22:37;;;;;;;5.90;2.60;;;;;;;11.03;59.50;101343.13;105108;1260;60464;-55
2023/06/04 02:25:05;;;;;;;7.40;3.10;;;;;;;11.08;59.70;101345.79;108622;1254;63743;-56
2023/06/04 02:27:32;;;;;;;5.00;2.00;;;;;;;11.12;59.88;101346.92;105364;1259;60572;-55
2023/06/04 02:30:00;;;;;;;6.10;2.80;;;;;;;11.14;59.75;101341.89;104932;1256;60432;-56
2023/06/04 02:32:28;;;;;;;4.70;2.70;;;;;;;11.14;59.57;101339.05;104809;1261;64881;-56
2023/06/04 02:34:56;;;;;;;7.50;2.60;;;;;;;11.11;59.35;101338.90;106381;1254;61843;-55
2023/06/04 02:37:23;;;;;;;7.20;2.90;;;;;;;11.04;59.32;101340.82;104900;1259;62477;-56
2023/06/04 02:39:51;;;;;;;6.50;2.70;;;;;;;11.02;59.29;101342.17;104996;1254;62762;-56
2023/06/04 02:42:19;;;;;;;6.80;2.30;;;;;;;11.03;59.20;101345.08;104917;1254;60505;-57
2023/06/04 02:44:46;;;;;;;5.50;2.60;;;;;;;11.02;59.21;101345.10;106508;1260;64875;-55
2023/06/04 02:47:14;;;;;;;5.40;2.40;;;;;;;11.09;59.40;101344.87;105019;1254;63245;-55
2023/06/04 02:49:42;;;;;;;6.40;2.20;;;;;;;11.17;59.51;101350.11;104827;1260;62478;-55
2023/06/04 02:52:55;;;;;;;6.70;2.30;;;;;;;11.23;59.58;101353.37;106099;1256;60479;-55
2023/06/04 02:55:22;;;;;;;5.30;2.90;;;;;;;11.28;59.62;101354.95;104902;1260;60485;-56
2023/06/04 02:57:52;;;;;;;5.40;2.80;;;;;;;11.31;59.46;101357.40;105081;1256;63747;-57
2023/06/04 03:00:20;;;;;;;8.40;2.50;;;;;;;11.31;59.11;101360.73;105139;1254;61354;-57
2023/06/04 03:02:48;;;;;;;5.90;2.50;;;;;;;11.30;58.89;101364.99;105683;1257;62515;-57
2023/06/04 03:05:17;;;;;;;5.10;2.80;;;;;;;11.30;58.89;101369.58;105922;1260;60514;-56
2023/06/04 03:07:46;;;;;;;5.60;2.60;;;;;;;11.29;59.05;101369.28;106729;1256;60553;-55
2023/06/04 03:10:16;;;;;;;5.30;2.50;;;;;;;11.28;59.14;101373.39;105906;1256;63661;-57
2023/06/04 03:12:43;;;;;;;5.60;2.70;;;;;;;11.27;59.34;101382.42;105147;1257;61312;-57
2023/06/04 03:15:11;;;;;;;6.70;2.60;;;;;;;11.31;59.35;101383.20;105052;1256;63667;-55
2023/06/04 03:17:39;;;;;;;5.80;2.60;;;;;;;11.39;59.04;101379.92;104903;1254;60540;-56
2023/06/04 03:20:07;;;;;;;6.70;2.90;;;;;;;11.43;58.89;101380.71;105019;1254;60306;-55
2023/06/04 03:22:35;;;;;;;5.80;2.50;;;;;;;11.46;58.96;101386.83;105277;1256;65544;-55
2023/06/04 03:25:04;;;;;;;6.30;2.40;;;;;;;11.50;58.94;101387.23;107014;1256;60472;-56
2023/06/04 03:27:32;;;;;;;6.50;2.80;;;;;;;11.55;58.88;101386.74;106272;1256;62505;-56
2023/06/04 03:29:59;;;;;;;6.30;2.80;;;;;;;11.59;58.69;101384.34;108822;1254;60592;-59
2023/06/04 03:32:32;;;;;;;7.00;3.00;;;;;;;11.64;58.15;101384.89;106165;1256;60562;-56
2023/06/04 03:35:01;;;;;;;7.30;3.10;;;;;;;11.70;57.72;101384.80;104996;1256;64981;-56
2023/06/04 03:37:28;;;;;;;6.50;2.30;;;;;;;11.78;57.69;101386.41;106332;1257;61853;-55
2023/06/04 03:39:56;;;;;;;5.90;2.70;;;;;;;11.85;57.50;101389.39;107097;1256;63714;-56
2023/06/04 03:42:24;;;;;;;9.60;2.80;;;;;;;11.92;57.30;101385.80;104994;1257;60456;-57
2023/06/04 03:44:52;;;;;;;7.50;2.50;;;;;;;11.98;57.27;101375.33;104991;1254;60439;-59
2023/06/04 03:47:20;;;;;;;6.50;2.20;;;;;;;12.10;56.93;101375.92;106572;1256;63686;-54
2023/06/04 03:49:48;;;;;;;6.60;2.70;;;;;;;12.25;56.52;101372.58;105667;1254;61818;-56
2023/06/04 03:52:16;;;;;;;5.60;2.70;;;;;;;12.37;56.22;101370.64;104951;1260;63634;-56
2023/06/04 03:54:45;;;;;;;5.70;2.60;;;;;;;12.48;55.91;101370.61;105888;1256;60543;-55
2023/06/04 03:57:12;;;;;;;4.60;2.00;;;;;;;12.56;55.53;101372.09;105021;1254;61750;-54
2023/06/04 03:59:40;;;;;;;4.40;1.90;;;;;;;12.66;55.35;101375.30;105030;1254;64952;-55
2023/06/04 04:02:07;;;;;;;5.10;2.50;;;;;;;12.73;55.16;101381.07;105069;1254;61821;-57
2023/06/04 04:04:35;;;;;;;6.60;2.20;;;;;;;12.80;55.13;101384.77;105136;1254;62528;-57
2023/06/04 04:07:03;;;;;;;7.00;2.80;;;;;;;12.87;54.91;101382.90;105142;1258;60500;-56
2023/06/04 04:09:30;;;;;;;4.70;1.90;;;;;;;12.90;54.63;101381.98;105057;1259;60560;-56
2023/06/04 04:11:58;;;;;;;5.10;2.20;;;;;;;12.97;54.42;101382.48;105037;1259;64910;-56
2023/06/04 04:14:26;;;;;;;6.60;2.00;;;;;;;13.05;53.99;101381.40;106363;1256;61514;-56
2023/06/04 04:16:53;;;;;;;5.60;1.80;;;;;;;13.13;53.44;101381.67;105070;1257;63763;-56
2023/06/04 04:19:22;;;;;;;5.00;1.90;;;;;;;13.21;53.14;101379.67;107315;1254;60451;-57
2023/06/04 04:21:50;;;;;;;4.50;1.90;;;;;;;13.28;53.03;101387.41;105114;1259;60405;-57
2023/06/04 04:24:27;;;;;;;5.70;1.80;;;;;;;13.35;52.89;101387.98;105614;1256;64989;-56
2023/06/04 04:26:58;;;;;;;4.30;1.90;;;;;;;13.42;52.64;101384.64;105625;1256;61504;-57
2023/06/04 04:29:27;;;;;;;4.80;1.90;;;;;;;13.48;52.33;101385.23;106333;1257;63774;-55
2023/06/04 04:31:56;;;;;;;5.60;2.10;;;;;;;13.54;51.92;101384.25;106292;1256;61096;-56
2023/06/04 04:34:26;;;;;;;6.40;2.10;;;;;;;13.64;51.29;101379.77;105527;1259;60450;-55
2023/06/04 04:36:54;;;;;;;6.20;2.10;;;;;;;13.72;50.83;101377.23;105491;1255;64936;-57
2023/06/04 04:39:23;;;;;;;5.60;1.70;;;;;;;13.78;51.17;101379.21;105021;1256;61326;-57
2023/06/04 04:41:51;;;;;;;4.40;1.60;;;;;;;13.88;51.38;101378.10;104984;1259;64696;-55
2023/06/04 04:44:19;;;;;;;4.50;1.80;;;;;;;13.97;51.07;101381.86;104899;1257;60485;-55
2023/06/04 04:46:48;;;;;;;8.40;1.90;;;;;;;14.04;50.40;101382.50;105650;1256;60352;-57
2023/06/04 04:49:16;;;;;;;5.90;2.00;;;;;;;14.11;50.14;101384.90;106019;1256;64915;-57
2023/06/04 04:51:44;;;;;;;5.40;1.40;;;;;;;14.19;50.43;101384.52;105298;1259;60477;-57
2023/06/04 04:54:11;;;;;;;4.90;1.60;;;;;;;14.26;50.52;101386.05;105115;1260;63129;-57
2023/06/04 04:56:39;;;;;;;3.40;1.40;;;;;;;14.33;49.69;101381.97;105246;1258;60562;-57
2023/06/04 04:59:07;;;;;;;3.50;1.20;;;;;;;14.41;49.75;101386.06;105250;1254;60607;-57
2023/06/04 05:01:35;;;;;;;4.50;1.20;;;;;;;14.49;49.47;101389.52;105272;1254;64215;-59
2023/06/04 05:04:03;;;;;;;6.30;1.70;;;;;;;14.57;49.82;101397.76;106383;1254;61315;-57
2023/06/04 05:06:33;;;;;;;4.50;1.10;;;;;;;14.64;49.85;101395.20;105179;1255;63704;-56
2023/06/04 05:09:00;;;;;;;5.10;1.50;;;;;;;14.73;49.72;101393.27;105082;1256;60433;-56
2023/06/04 05:11:29;;;;;;;4.60;1.40;;;;;;;14.81;49.75;101392.63;105256;1254;60427;-57
2023/06/04 05:13:57;;;;;;;4.70;1.40;;;;;;;14.88;49.44;101395.06;105191;1261;63729;-58
2023/06/04 05:16:24;;;;;;;5.60;1.90;;;;;;;14.95;49.51;101392.38;105697;1255;61850;-55
2023/06/04 05:18:52;;;;;;;3.70;1.30;;;;;;;15.01;48.91;101392.18;108943;1256;62563;-56
2023/06/04 05:21:22;;;;;;;4.00;1.30;;;;;;;15.09;48.61;101393.49;105278;1257;60510;-56
2023/06/04 05:23:57;;;;;;;5.50;1.50;;;;;;;15.16;48.04;101397.30;105144;1260;60528;-58
2023/06/04 05:26:28;;;;;;;3.10;1.10;;;;;;;15.24;47.38;101401.79;106351;1254;65095;-56
2023/06/04 05:28:59;;;;;;;4.70;1.40;;;;;;;15.31;46.41;101402.06;105028;1254;60457;-58
2023/06/04 05:31:28;;;;;;;4.10;1.20;;;;;;;15.39;45.46;101401.09;106346;1256;64204;-57
2023/06/04 05:33:57;;;;;;;6.50;1.40;;;;;;;15.47;44.82;101402.15;105011;1256;60448;-56
2023/06/04 05:36:25;;;;;;;3.20;1.00;;;;;;;15.54;44.20;101400.32;105566;1259;60452;-56
2023/06/04 05:38:57;;;;;;;3.30;1.00;;;;;;;15.59;43.60;101400.57;105096;1257;64934;-57
2023/06/04 05:41:30;;;;;;;4.70;1.10;;;;;;;15.65;43.32;101397.95;105121;1256;63644;-57
2023/06/04 05:43:58;;;;;;;3.70;1.10;;;;;;;15.73;43.35;101396.77;105036;1256;64229;-54
2023/06/04 05:46:26;;;;;;;3.80;1.00;;;;;;;15.81;43.10;101392.08;105007;1259;60555;-55
2023/06/04 05:48:54;;;;;;;3.90;1.20;;;;;;;15.87;42.24;101394.86;104892;1254;60541;-55
2023/06/04 05:51:22;;;;;;;8.50;5.40;;;;;;;15.95;41.58;101400.03;105678;1254;64906;-56
2023/06/04 05:53:50;;;;;;;7.60;3.90;;;;;;;16.03;41.73;101399.70;105589;1254;61485;-56
2023/06/04 05:56:18;;;;;;;5.10;2.00;;;;;;;16.12;41.67;101402.48;104995;1259;63716;-58
2023/06/04 05:58:51;;;;;;;5.20;1.80;;;;;;;16.20;41.56;101406.02;105000;1260;60441;-58
2023/06/04 06:01:19;;;;;;;6.50;3.30;;;;;;;16.28;40.65;101402.99;106457;1256;60626;-57
2023/06/04 06:03:47;;;;;;;3.00;1.10;;;;;;;16.34;39.57;101403.89;107455;1254;63727;-55
2023/06/04 06:06:15;;;;;;;6.20;3.10;;;;;;;16.40;38.70;101400.41;105050;1259;60396;-54
2023/06/04 06:08:43;;;;;;;6.90;1.10;;;;;;;16.45;39.09;101402.62;105715;1259;62480;-54
2023/06/04 06:11:11;;;;;;;5.00;1.50;;;;;;;16.52;39.58;101400.40;104889;1256;60527;-48
2023/06/04 06:13:39;;;;;;;4.60;1.40;;;;;;;16.61;39.25;101400.48;105975;1260;60321;-49
2023/06/04 06:16:08;;;;;;;5.50;1.60;;;;;;;16.68;38.73;101399.08;105056;1259;63728;-51
2023/06/04 06:18:36;;;;;;;5.90;1.20;;;;;;;16.75;38.27;101399.70;107654;1258;61710;-51
2023/06/04 06:21:03;;;;;;;3.50;1.00;;;;;;;16.84;37.56;101402.09;105256;1254;63930;-50
2023/06/04 06:23:31;;;;;;;3.50;0.80;;;;;;;16.94;37.05;101400.40;105411;1254;60470;-50
2023/06/04 06:26:01;;;;;;;4.30;0.90;;;;;;;17.01;36.90;101400.23;104836;1254;62762;-52
2023/06/04 06:28:31;;;;;;;4.70;1.30;;;;;;;17.09;36.82;101401.65;104949;1254;64886;-55
2023/06/04 06:30:59;;;;;;;2.60;0.80;;;;;;;17.15;36.60;101405.33;105104;1259;60427;-56
2023/06/04 06:33:26;;;;;;;4.60;1.20;;;;;;;17.19;36.32;101408.70;104913;1257;62410;-54
2023/06/04 06:35:54;;;;;;;3.40;0.90;;;;;;;17.23;35.97;101408.53;105022;1254;60479;-54
2023/06/04 06:38:21;;;;;;;2.20;0.50;;;;;;;17.26;36.08;101410.04;105036;1254;60508;-54
2023/06/04 06:40:49;;;;;;;3.20;0.90;;;;;;;17.29;36.45;101405.83;105011;1254;64856;-57
2023/06/04 06:43:16;;;;;;;4.40;1.00;;;;;;;17.30;35.61;101408.42;105009;1259;61523;-57
2023/06/04 06:45:44;;;;;;;3.60;0.80;;;;;;;17.30;35.13;101406.11;105048;1254;63838;-55
2023/06/04 06:48:11;;;;;;;3.40;0.80;;;;;;;17.29;34.76;101406.37;105057;1254;60482;-57
2023/06/04 06:50:39;;;;;;;2.10;0.70;;;;;;;17.31;35.55;101407.46;105889;1256;60557;-55
2023/06/04 06:53:07;;;;;;;3.30;0.60;;;;;;;17.37;35.61;101402.11;105066;1254;64969;-53
2023/06/04 06:55:34;;;;;;;4.00;0.70;;;;;;;17.46;35.17;101406.55;106091;1254;61279;-54
2023/06/04 06:58:02;;;;;;;3.30;0.60;;;;;;;17.56;34.42;101404.93;107119;1256;62542;-55
2023/06/04 07:00:29;;;;;;;2.30;0.60;;;;;;;17.63;34.14;101402.02;105053;1258;60562;-54
2023/06/04 07:02:57;;;;;;;2.80;0.90;;;;;;;17.70;34.51;101402.82;105052;1254;60894;-53
2023/06/04 07:05:24;;;;;;;1.70;0.50;;;;;;;17.76;34.51;101406.77;105501;1254;65347;-55
2023/06/04 07:07:52;;;;;;;2.30;0.60;;;;;;;17.82;33.73;101408.69;105072;1254;61281;-56
2023/06/04 07:10:20;;;;;;;5.10;0.80;;;;;;;17.88;32.95;101411.71;106493;1254;62545;-54
2023/06/04 07:12:48;;;;;;;2.40;0.70;;;;;;;17.87;32.05;101407.73;105728;1254;60550;-56
2023/06/04 07:15:16;;;;;;;3.60;1.00;;;;;;;17.82;31.94;101411.73;105016;1259;60572;-55
2023/06/04 07:17:43;;;;;;;2.70;0.60;;;;;;;17.80;31.88;101411.60;105130;1259;64864;-52
2023/06/04 07:20:11;;;;;;;5.00;0.90;;;;;;;17.81;31.96;101409.03;108449;1254;61382;-58
2023/06/04 07:22:39;;;;;;;3.70;0.70;;;;;;;17.83;31.95;101406.48;105144;1254;63790;-54
2023/06/04 07:25:07;;;;;;;2.60;0.70;;;;;;;17.86;31.96;101411.52;104877;1258;60508;-56
2023/06/04 07:27:35;;;;;;;6.00;0.80;;;;;;;17.90;31.77;101416.73;106122;1260;60675;-54
2023/06/04 07:30:03;;;;;;;4.90;0.90;;;;;;;17.94;31.71;101420.26;104888;1260;64935;-55
2023/06/04 07:32:30;;;;;;;2.50;0.50;;;;;;;17.99;31.85;101417.58;106121;1259;61322;-55
2023/06/04 07:34:58;;;;;;;1.70;0.50;;;;;;;18.04;31.69;101413.04;104974;1260;63790;-55
2023/06/04 07:37:26;;;;;;;2.60;0.80;;;;;;;18.09;31.86;101407.64;105002;1256;61097;-54
2023/06/04 07:39:53;;;;;;;2.60;0.70;;;;;;;18.10;31.85;101406.27;106254;1256;60564;-55
2023/06/04 07:42:21;;;;;;;2.70;0.80;;;;;;;18.13;31.52;101406.36;104820;1256;63697;-57
2023/06/04 07:44:48;;;;;;;2.90;0.70;;;;;;;18.14;31.19;101407.80;104804;1256;61356;-56
2023/06/04 07:47:16;;;;;;;1.40;0.40;;;;;;;18.17;30.92;101410.44;104922;1256;63787;-55
2023/06/04 07:49:43;;;;;;;5.40;0.80;;;;;;;18.17;30.76;101410.92;104808;1255;62400;-55
2023/06/04 07:52:28;;;;;;;3.10;0.80;;;;;;;18.20;31.26;101408.38;104868;1254;60442;-54
2023/06/04 07:54:56;;;;;;;2.20;0.60;;;;;;;18.26;31.72;101405.45;104898;1260;64880;-56
2023/06/04 07:57:24;;;;;;;4.50;0.80;;;;;;;18.30;30.81;101406.70;104974;1256;61775;-55
2023/06/04 07:59:52;;;;;;;3.40;0.90;;;;;;;18.29;30.40;101404.40;105010;1261;63848;-55
2023/06/04 08:02:19;;;;;;;2.30;0.60;;;;;;;18.33;31.51;101403.20;104983;1258;61196;-54
2023/06/04 08:04:47;;;;;;;3.30;0.90;;;;;;;18.42;32.12;101407.70;104907;1255;60547;-54
2023/06/04 08:07:15;;;;;;;3.90;0.60;;;;;;;18.48;31.38;101406.92;104957;1260;65809;-54
2023/06/04 08:09:44;;;;;;;4.70;1.00;;;;;;;18.48;31.62;101407.27;105074;1262;60339;-55
2023/06/04 08:12:11;;;;;;;3.30;1.00;;;;;;;18.45;30.75;101406.52;105039;1262;66349;-56
2023/06/04 08:14:39;;;;;;;2.40;0.50;;;;;;;18.38;30.82;101406.38;104951;1256;60454;-55
2023/06/04 08:17:06;;;;;;;2.40;0.60;;;;;;;18.39;30.82;101411.46;104948;1260;60371;-54
2023/06/04 08:19:34;;;;;;;3.00;0.70;;;;;;;18.46;31.04;101409.91;104937;1261;65299;-56
2023/06/04 08:22:02;;;;;;;3.40;0.80;;;;;;;18.54;30.85;101408.08;104978;1256;61556;-56
2023/06/04 08:24:56;;;;;;;2.50;0.60;;;;;;;18.62;30.52;101405.85;105004;1257;63764;-55
2023/06/04 08:27:24;;;;;;;1.60;0.40;;;;;;;18.72;29.85;101407.19;105610;1254;60473;-54
2023/06/04 08:32:51;;;;;;;2.80;0.90;;;;;;;18.64;30.91;101406.90;102194;1297;601299;-57
2023/06/04 08:35:19;;;;;;;3.20;0.70;;;;;;;18.85;29.91;101402.58;105732;1267;59356;-56
2023/06/04 08:37:47;;;;;;;3.40;0.60;;;;;;;18.89;29.71;101399.02;104199;1273;59448;-53
2023/06/04 08:40:14;;;;;;;3.40;0.60;;;;;;;18.89;29.44;101401.09;104124;1272;64739;-56
2023/06/04 08:42:44;;;;;;;3.40;0.60;;;;;;;18.89;30.53;101399.69;104094;1267;63568;-56
2023/06/04 08:45:13;;;;;;;3.10;0.80;;;;;;;18.92;29.94;101400.52;104013;1272;221039;-55
2023/06/04 08:47:44;;;;;;;1.90;0.40;;;;;;;18.92;28.64;101395.29;104541;1268;59931;-57
2023/06/04 08:50:12;;;;;;;3.80;0.80;;;;;;;18.90;28.86;101395.70;104482;1269;60828;-56
2023/06/04 08:52:40;;;;;;;1.90;0.50;;;;;;;18.92;30.27;101399.20;104545;1264;62016;-55
2023/06/04 08:55:09;;;;;;;2.00;0.60;;;;;;;18.99;29.69;101398.31;104508;1264;60488;-57
2023/06/04 08:57:40;;;;;;;1.00;0.40;;;;;;;19.05;29.45;101393.80;104529;1264;64285;-56
2023/06/04 09:00:08;;;;;;;2.30;0.60;;;;;;;19.12;29.78;101390.45;104450;1269;59832;-60
2023/06/04 09:02:39;;;;;;;2.50;0.50;;;;;;;19.22;29.50;101388.06;104798;1269;59727;-58
2023/06/04 09:05:09;;;;;;;1.90;0.50;;;;;;;19.32;29.53;101385.98;104424;1269;64121;-57
2023/06/04 09:07:37;;;;;;;2.70;0.60;;;;;;;19.41;29.42;101382.02;104554;1264;61921;-56
2023/06/04 09:10:05;;;;;;;3.90;0.80;;;;;;;19.49;29.22;101386.24;104671;1269;62529;-56
2023/06/04 09:13:31;;;;;;;1.40;0.40;;;;;;;19.56;28.78;101390.33;104540;1267;59672;-57
2023/06/04 09:16:02;;;;;;;4.20;0.70;;;;;;;19.60;27.85;101391.36;105091;1264;59703;-56
2023/06/04 09:18:30;;;;;;;3.00;0.60;;;;;;;19.58;27.77;101389.23;104968;1264;62800;-57
2023/06/04 09:21:08;;;;;;;1.80;0.50;;;;;;;19.55;27.39;101383.83;104563;1264;62029;-58
2023/06/04 09:23:47;;;;;;;2.30;0.50;;;;;;;19.56;27.50;101377.46;104614;1264;63781;-55
2023/06/04 09:26:14;;;;;;;2.60;0.70;;;;;;;19.61;27.25;101372.52;104461;1264;59758;-57
2023/06/04 09:28:45;;;;;;;1.70;0.50;;;;;;;19.63;27.16;101368.92;104423;1264;59816;-56
2023/06/04 09:31:14;;;;;;;3.20;0.50;;;;;;;19.66;27.54;101367.92;104329;1263;65003;-56
2023/06/04 09:33:43;;;;;;;2.60;0.70;;;;;;;19.73;27.16;101370.79;106077;1266;62725;-60
2023/06/04 09:36:11;;;;;;;1.40;0.50;;;;;;;19.79;26.39;101370.37;104511;1270;63093;-54
2023/06/04 09:38:39;;;;;;;3.50;0.70;;;;;;;19.81;26.45;101364.64;104893;1260;59653;-56
2023/06/04 09:41:13;;;;;;;2.90;0.70;;;;;;;19.87;26.99;101363.80;104614;1266;59602;-55
2023/06/04 09:43:41;;;;;;;2.60;0.50;;;;;;;19.98;27.64;101360.20;106343;1265;64134;-55
2023/06/04 09:46:16;;;;;;;1.70;0.40;;;;;;;20.11;28.34;101356.84;104889;1262;71377;-55
2023/06/04 09:48:44;;;;;;;2.70;0.50;;;;;;;20.23;28.30;101352.95;106378;1258;63758;-56
2023/06/04 09:51:16;;;;;;;1.60;0.50;;;;;;;20.34;27.57;101346.78;104926;1259;59628;-54
2023/06/04 09:53:53;;;;;;;2.30;0.60;;;;;;;20.43;27.27;101347.27;104877;1257;59739;-54
2023/06/04 09:56:21;;;;;;;2.10;0.70;;;;;;;20.48;27.28;101346.21;104885;1258;64118;-55
2023/06/04 09:58:49;;;;;;;2.10;0.40;;;;;;;20.47;26.69;101343.85;106481;1257;61488;-61
2023/06/04 10:01:16;;;;;;;3.10;1.00;;;;;;;20.44;26.75;101342.14;105609;1258;63836;-56
2023/06/04 10:03:47;;;;;;;2.60;0.50;;;;;;;20.38;26.74;101342.45;104975;1260;59750;-56
2023/06/04 10:06:18;;;;;;;1.30;0.50;;;;;;;20.36;27.01;101338.95;105547;1263;59806;-57
2023/06/04 10:08:46;;;;;;;3.50;0.90;;;;;;;20.36;26.24;101335.14;104651;1257;63119;-62
2023/06/04 10:11:13;;;;;;;3.50;0.90;;;;;;;20.36;26.13;101329.42;104817;1257;61463;-56
2023/06/04 10:13:55;;;;;;;2.00;0.60;;;;;;;20.40;26.49;101328.90;104801;1257;63912;-56
2023/06/04 10:16:23;;;;;;;3.30;0.60;;;;;;;20.48;26.75;101328.70;104901;1260;59695;-55
2023/06/04 10:19:01;;;;;;;2.90;0.60;;;;;;;20.59;27.31;101328.96;104853;1263;59676;-57
2023/06/04 10:21:31;;;;;;;1.70;0.50;;;;;;;20.72;26.66;101328.33;105436;1260;64329;-56
2023/06/04 10:23:59;;;;;;;1.70;0.50;;;;;;;20.83;26.24;101329.09;105278;1257;61467;-56
2023/06/04 10:26:26;;;;;;;1.20;0.40;;;;;;;20.86;25.32;101330.16;104900;1257;64166;-56
2023/06/04 10:28:54;;;;;;;3.50;0.70;;;;;;;20.86;25.03;101328.09;104770;1260;59667;-56
2023/06/04 10:31:22;;;;;;;1.40;0.30;;;;;;;20.86;26.21;101327.48;104763;1263;59677;-55
2023/06/04 10:33:54;;;;;;;4.00;0.50;;;;;;;20.85;25.66;101324.92;105078;1258;62848;-56
2023/06/04 10:36:22;;;;;;;2.20;0.50;;;;;;;20.85;25.75;101320.10;105725;1257;60142;-55
2023/06/04 10:38:51;;;;;;;1.30;0.40;;;;;;;20.87;25.49;101316.16;105786;1260;63727;-55
2023/06/04 10:41:22;;;;;;;2.80;0.60;;;;;;;20.91;26.21;101314.68;105704;1260;59681;-56
2023/06/04 10:43:51;;;;;;;2.30;0.70;;;;;;;20.92;25.99;101312.61;105783;1258;59654;-56
2023/06/04 10:46:19;;;;;;;2.60;0.60;;;;;;;20.93;25.48;101313.48;105121;1257;63025;-55
2023/06/04 10:48:51;;;;;;;2.50;0.80;;;;;;;20.95;25.46;101310.77;105778;1258;61479;-55
2023/06/04 10:51:32;;;;;;;2.90;0.80;;;;;;;20.97;25.18;101307.63;105135;1257;63789;-56
2023/06/04 10:54:00;;;;;;;3.20;0.90;;;;;;;20.98;25.70;101301.65;105532;1262;59759;-59
2023/06/04 10:56:29;;;;;;;4.70;1.20;;;;;;;20.99;25.35;101300.40;105627;1258;59636;-55
2023/06/04 10:58:56;;;;;;;3.20;1.10;;;;;;;21.00;25.18;101300.73;105598;1257;62876;-56
2023/06/04 11:01:28;;;;;;;3.50;1.30;;;;;;;21.02;25.15;101295.07;105067;1262;61547;-59
2023/06/04 11:03:56;;;;;;;4.40;1.20;;;;;;;21.07;25.44;101293.70;105392;1262;63716;-55
2023/06/04 11:06:27;;;;;;;3.30;1.20;;;;;;;21.12;25.94;101289.54;105542;1257;60602;-55
2023/06/04 11:09:05;;;;;;;4.60;1.60;;;;;;;21.18;25.61;101283.84;104848;1262;61650;-54
2023/06/04 11:11:33;;;;;;;5.30;1.40;;;;;;;21.20;25.11;101284.71;104970;1262;64110;-54
2023/06/04 11:14:09;;;;;;;4.80;1.50;;;;;;;21.22;25.52;101280.26;105322;1257;61447;-56
2023/06/04 11:16:36;;;;;;;4.80;1.30;;;;;;;21.31;25.47;101277.41;105176;1257;64162;-54
2023/06/04 11:19:04;;;;;;;4.20;1.60;;;;;;;21.45;26.13;101274.27;104909;1256;59635;-55
2023/06/04 11:21:34;;;;;;;7.50;1.70;;;;;;;21.55;25.17;101275.16;106084;1263;59673;-55
2023/06/04 11:24:01;;;;;;;4.70;1.60;;;;;;;21.58;25.03;101276.45;105258;1257;62843;-55
2023/06/04 11:26:33;;;;;;;4.20;1.90;;;;;;;21.64;25.60;101273.42;104868;1257;61531;-57
2023/06/04 11:29:08;;;;;;;3.70;1.40;;;;;;;21.72;25.05;101271.65;105242;1260;64141;-54
2023/06/04 11:31:48;;;;;;;6.00;1.60;;;;;;;21.76;24.91;101269.52;105986;1257;59638;-56